sensor_id;sensor_type;location;lat;lon;timestamp;temperature;humidity
81524;DHT22;70954;49.500;10.416;2023-09-07T00:00:43;18.50;56.90
81524;DHT22;70954;49.500;10.416;2023-09-07T00:03:08;18.50;57.00
81524;DHT22;70954;49.500;10.416;2023-09-07T00:05:34;18.50;57.10
81524;DHT22;70954;49.500;10.416;2023-09-07T00:07:59;18.40;57.10
81524;DHT22;70954;49.500;10.416;2023-09-07T00:10:26;18.40;57.10
81524;DHT22;70954;49.500;10.416;2023-09-07T00:12:52;18.40;57.20
81524;DHT22;70954;49.500;10.416;2023-09-07T00:15:17;18.40;57.30
81524;DHT22;70954;49.500;10.416;2023-09-07T00:17:43;18.40;57.30
81524;DHT22;70954;49.500;10.416;2023-09-07T00:20:08;18.30;57.30
81524;DHT22;70954;49.500;10.416;2023-09-07T00:22:34;18.30;57.40
81524;DHT22;70954;49.500;10.416;2023-09-07T00:24:59;18.30;57.40
81524;DHT22;70954;49.500;10.416;2023-09-07T00:27:25;18.20;57.50
81524;DHT22;70954;49.500;10.416;2023-09-07T00:29:50;18.20;57.50
81524;DHT22;70954;49.500;10.416;2023-09-07T00:32:16;18.20;57.60
81524;DHT22;70954;49.500;10.416;2023-09-07T00:34:41;18.20;57.60
81524;DHT22;70954;49.500;10.416;2023-09-07T00:37:07;18.10;57.70
81524;DHT22;70954;49.500;10.416;2023-09-07T00:39:32;18.10;57.70
81524;DHT22;70954;49.500;10.416;2023-09-07T00:41:58;18.10;57.80
81524;DHT22;70954;49.500;10.416;2023-09-07T00:44:23;18.10;57.80
81524;DHT22;70954;49.500;10.416;2023-09-07T00:46:48;18.00;57.80
81524;DHT22;70954;49.500;10.416;2023-09-07T00:49:14;18.00;57.80
81524;DHT22;70954;49.500;10.416;2023-09-07T00:51:40;18.00;57.90
81524;DHT22;70954;49.500;10.416;2023-09-07T00:54:06;18.00;57.90
81524;DHT22;70954;49.500;10.416;2023-09-07T00:56:31;18.00;57.90
81524;DHT22;70954;49.500;10.416;2023-09-07T00:58:57;17.90;58.00
81524;DHT22;70954;49.500;10.416;2023-09-07T01:01:23;17.80;58.00
81524;DHT22;70954;49.500;10.416;2023-09-07T01:03:50;17.80;58.00
81524;DHT22;70954;49.500;10.416;2023-09-07T01:06:20;17.80;58.10
81524;DHT22;70954;49.500;10.416;2023-09-07T01:08:51;17.80;58.20
81524;DHT22;70954;49.500;10.416;2023-09-07T01:11:19;17.80;58.40
81524;DHT22;70954;49.500;10.416;2023-09-07T01:13:45;17.70;58.30
81524;DHT22;70954;49.500;10.416;2023-09-07T01:16:10;17.70;58.40
81524;DHT22;70954;49.500;10.416;2023-09-07T01:18:38;17.60;58.50
81524;DHT22;70954;49.500;10.416;2023-09-07T01:27:02;17.60;59.00
81524;DHT22;70954;49.500;10.416;2023-09-07T01:29:28;17.50;59.00
81524;DHT22;70954;49.500;10.416;2023-09-07T01:31:54;17.50;58.60
81524;DHT22;70954;49.500;10.416;2023-09-07T01:34:20;17.50;58.60
81524;DHT22;70954;49.500;10.416;2023-09-07T01:36:45;17.50;58.70
81524;DHT22;70954;49.500;10.416;2023-09-07T01:39:11;17.50;58.70
81524;DHT22;70954;49.500;10.416;2023-09-07T01:41:36;17.50;58.70
81524;DHT22;70954;49.500;10.416;2023-09-07T01:44:02;17.40;58.70
81524;DHT22;70954;49.500;10.416;2023-09-07T01:46:27;17.40;58.70
81524;DHT22;70954;49.500;10.416;2023-09-07T01:48:53;17.40;58.70
81524;DHT22;70954;49.500;10.416;2023-09-07T01:51:18;17.40;58.70
81524;DHT22;70954;49.500;10.416;2023-09-07T01:53:46;17.30;58.70
81524;DHT22;70954;49.500;10.416;2023-09-07T01:56:12;17.20;58.70
81524;DHT22;70954;49.500;10.416;2023-09-07T01:58:37;17.20;58.80
81524;DHT22;70954;49.500;10.416;2023-09-07T02:01:03;17.20;58.80
81524;DHT22;70954;49.500;10.416;2023-09-07T02:03:28;17.20;58.90
81524;DHT22;70954;49.500;10.416;2023-09-07T02:05:54;17.20;58.90
81524;DHT22;70954;49.500;10.416;2023-09-07T02:08:19;17.10;58.90
81524;DHT22;70954;49.500;10.416;2023-09-07T02:10:45;17.10;58.90
81524;DHT22;70954;49.500;10.416;2023-09-07T02:13:10;17.00;58.90
81524;DHT22;70954;49.500;10.416;2023-09-07T02:15:39;17.00;59.10
81524;DHT22;70954;49.500;10.416;2023-09-07T02:18:05;17.00;59.10
81524;DHT22;70954;49.500;10.416;2023-09-07T02:20:31;17.00;59.10
81524;DHT22;70954;49.500;10.416;2023-09-07T02:22:56;17.00;59.20
81524;DHT22;70954;49.500;10.416;2023-09-07T02:25:22;17.00;59.30
81524;DHT22;70954;49.500;10.416;2023-09-07T02:27:47;17.00;59.20
81524;DHT22;70954;49.500;10.416;2023-09-07T02:30:13;16.90;59.30
81524;DHT22;70954;49.500;10.416;2023-09-07T02:32:38;16.90;59.40
81524;DHT22;70954;49.500;10.416;2023-09-07T02:35:04;16.90;59.40
81524;DHT22;70954;49.500;10.416;2023-09-07T02:37:29;16.80;59.40
81524;DHT22;70954;49.500;10.416;2023-09-07T02:39:55;16.80;59.40
81524;DHT22;70954;49.500;10.416;2023-09-07T02:42:20;16.80;59.40
81524;DHT22;70954;49.500;10.416;2023-09-07T02:44:46;16.80;59.40
81524;DHT22;70954;49.500;10.416;2023-09-07T02:47:11;16.80;59.40
81524;DHT22;70954;49.500;10.416;2023-09-07T02:49:37;16.70;59.40
81524;DHT22;70954;49.500;10.416;2023-09-07T02:52:02;16.70;59.30
81524;DHT22;70954;49.500;10.416;2023-09-07T02:54:28;16.70;59.40
81524;DHT22;70954;49.500;10.416;2023-09-07T02:56:53;16.60;59.40
81524;DHT22;70954;49.500;10.416;2023-09-07T02:59:18;16.60;59.40
81524;DHT22;70954;49.500;10.416;2023-09-07T03:01:44;16.60;59.50
81524;DHT22;70954;49.500;10.416;2023-09-07T03:04:09;16.50;59.50
81524;DHT22;70954;49.500;10.416;2023-09-07T03:06:35;16.50;59.60
81524;DHT22;70954;49.500;10.416;2023-09-07T03:09:00;16.50;59.60
81524;DHT22;70954;49.500;10.416;2023-09-07T03:11:26;16.40;59.60
81524;DHT22;70954;49.500;10.416;2023-09-07T03:13:51;16.40;59.60
81524;DHT22;70954;49.500;10.416;2023-09-07T03:16:16;16.40;59.70
81524;DHT22;70954;49.500;10.416;2023-09-07T03:18:42;16.40;59.70
81524;DHT22;70954;49.500;10.416;2023-09-07T03:21:07;16.30;59.70
81524;DHT22;70954;49.500;10.416;2023-09-07T03:23:33;16.30;59.70
81524;DHT22;70954;49.500;10.416;2023-09-07T03:25:59;16.20;59.80
81524;DHT22;70954;49.500;10.416;2023-09-07T03:28:25;16.20;59.80
81524;DHT22;70954;49.500;10.416;2023-09-07T03:30:51;16.10;59.80
81524;DHT22;70954;49.500;10.416;2023-09-07T03:33:17;16.10;59.90
81524;DHT22;70954;49.500;10.416;2023-09-07T03:35:42;16.10;60.00
81524;DHT22;70954;49.500;10.416;2023-09-07T03:38:08;16.00;60.00
81524;DHT22;70954;49.500;10.416;2023-09-07T03:40:33;16.00;60.10
81524;DHT22;70954;49.500;10.416;2023-09-07T03:42:58;16.00;60.20
81524;DHT22;70954;49.500;10.416;2023-09-07T03:45:24;16.00;60.10
81524;DHT22;70954;49.500;10.416;2023-09-07T03:47:49;16.00;60.10
81524;DHT22;70954;49.500;10.416;2023-09-07T03:50:15;16.00;60.10
81524;DHT22;70954;49.500;10.416;2023-09-07T03:52:40;15.90;60.10
81524;DHT22;70954;49.500;10.416;2023-09-07T03:55:06;15.80;60.20
81524;DHT22;70954;49.500;10.416;2023-09-07T03:57:32;15.80;60.30
81524;DHT22;70954;49.500;10.416;2023-09-07T03:59:57;15.80;60.40
81524;DHT22;70954;49.500;10.416;2023-09-07T04:02:23;15.80;60.50
81524;DHT22;70954;49.500;10.416;2023-09-07T04:04:50;15.80;60.50
81524;DHT22;70954;49.500;10.416;2023-09-07T04:07:16;15.80;60.50
81524;DHT22;70954;49.500;10.416;2023-09-07T04:09:42;15.70;60.60
81524;DHT22;70954;49.500;10.416;2023-09-07T04:12:08;15.70;60.70
81524;DHT22;70954;49.500;10.416;2023-09-07T04:14:34;15.70;60.80
81524;DHT22;70954;49.500;10.416;2023-09-07T04:16:59;15.70;60.90
81524;DHT22;70954;49.500;10.416;2023-09-07T04:19:24;15.60;60.90
81524;DHT22;70954;49.500;10.416;2023-09-07T04:21:50;15.60;61.00
81524;DHT22;70954;49.500;10.416;2023-09-07T04:24:15;15.60;60.90
81524;DHT22;70954;49.500;10.416;2023-09-07T04:26:41;15.60;61.00
81524;DHT22;70954;49.500;10.416;2023-09-07T04:29:07;15.60;61.00
81524;DHT22;70954;49.500;10.416;2023-09-07T04:31:32;15.60;60.90
81524;DHT22;70954;49.500;10.416;2023-09-07T04:33:58;15.60;61.00
81524;DHT22;70954;49.500;10.416;2023-09-07T04:36:23;15.60;61.00
81524;DHT22;70954;49.500;10.416;2023-09-07T04:38:49;15.50;61.10
81524;DHT22;70954;49.500;10.416;2023-09-07T04:41:14;15.50;61.10
81524;DHT22;70954;49.500;10.416;2023-09-07T04:43:41;15.50;61.20
81524;DHT22;70954;49.500;10.416;2023-09-07T04:46:06;15.50;61.10
81524;DHT22;70954;49.500;10.416;2023-09-07T04:48:32;15.50;61.20
81524;DHT22;70954;49.500;10.416;2023-09-07T04:51:02;15.50;61.20
81524;DHT22;70954;49.500;10.416;2023-09-07T04:53:29;15.50;61.20
81524;DHT22;70954;49.500;10.416;2023-09-07T04:55:55;15.40;61.20
81524;DHT22;70954;49.500;10.416;2023-09-07T04:58:21;15.40;61.20
81524;DHT22;70954;49.500;10.416;2023-09-07T05:00:46;15.40;61.40
81524;DHT22;70954;49.500;10.416;2023-09-07T05:03:11;15.40;61.40
81524;DHT22;70954;49.500;10.416;2023-09-07T05:05:38;15.40;61.50
81524;DHT22;70954;49.500;10.416;2023-09-07T05:08:04;15.40;61.50
81524;DHT22;70954;49.500;10.416;2023-09-07T05:10:29;15.40;61.50
81524;DHT22;70954;49.500;10.416;2023-09-07T05:12:55;15.40;61.70
81524;DHT22;70954;49.500;10.416;2023-09-07T05:15:20;15.40;61.70
81524;DHT22;70954;49.500;10.416;2023-09-07T05:17:46;15.40;61.80
81524;DHT22;70954;49.500;10.416;2023-09-07T05:20:11;15.30;61.90
81524;DHT22;70954;49.500;10.416;2023-09-07T05:22:37;15.40;61.80
81524;DHT22;70954;49.500;10.416;2023-09-07T05:25:02;15.30;61.90
81524;DHT22;70954;49.500;10.416;2023-09-07T05:27:28;15.30;61.90
81524;DHT22;70954;49.500;10.416;2023-09-07T05:29:53;15.40;61.90
81524;DHT22;70954;49.500;10.416;2023-09-07T05:32:19;15.30;62.00
81524;DHT22;70954;49.500;10.416;2023-09-07T05:34:44;15.40;62.10
81524;DHT22;70954;49.500;10.416;2023-09-07T05:37:10;15.40;62.10
81524;DHT22;70954;49.500;10.416;2023-09-07T05:39:35;15.40;62.20
81524;DHT22;70954;49.500;10.416;2023-09-07T05:42:01;15.40;62.20
81524;DHT22;70954;49.500;10.416;2023-09-07T05:44:26;15.40;62.30
81524;DHT22;70954;49.500;10.416;2023-09-07T05:46:51;15.40;62.30
81524;DHT22;70954;49.500;10.416;2023-09-07T05:49:17;15.40;62.50
81524;DHT22;70954;49.500;10.416;2023-09-07T05:51:42;15.40;62.60
81524;DHT22;70954;49.500;10.416;2023-09-07T05:54:08;15.40;62.60
81524;DHT22;70954;49.500;10.416;2023-09-07T05:56:33;15.50;62.70
81524;DHT22;70954;49.500;10.416;2023-09-07T05:58:59;15.50;62.80
81524;DHT22;70954;49.500;10.416;2023-09-07T06:01:24;15.50;62.90
81524;DHT22;70954;49.500;10.416;2023-09-07T06:03:50;15.50;62.90
81524;DHT22;70954;49.500;10.416;2023-09-07T06:06:15;15.60;63.00
81524;DHT22;70954;49.500;10.416;2023-09-07T06:08:41;15.60;63.00
81524;DHT22;70954;49.500;10.416;2023-09-07T06:11:06;15.60;63.10
81524;DHT22;70954;49.500;10.416;2023-09-07T06:13:32;15.60;63.20
81524;DHT22;70954;49.500;10.416;2023-09-07T06:15:57;15.60;63.30
81524;DHT22;70954;49.500;10.416;2023-09-07T06:18:23;15.70;63.40
81524;DHT22;70954;49.500;10.416;2023-09-07T06:20:48;15.80;63.40
81524;DHT22;70954;49.500;10.416;2023-09-07T06:23:13;15.80;63.50
81524;DHT22;70954;49.500;10.416;2023-09-07T06:25:39;15.80;63.60
81524;DHT22;70954;49.500;10.416;2023-09-07T06:28:05;15.90;63.60
81524;DHT22;70954;49.500;10.416;2023-09-07T06:30:30;16.00;63.70
81524;DHT22;70954;49.500;10.416;2023-09-07T06:32:56;16.00;63.80
81524;DHT22;70954;49.500;10.416;2023-09-07T06:35:21;16.00;63.90
81524;DHT22;70954;49.500;10.416;2023-09-07T06:37:46;16.10;64.00
81524;DHT22;70954;49.500;10.416;2023-09-07T06:40:12;16.20;64.00
81524;DHT22;70954;49.500;10.416;2023-09-07T06:42:37;16.20;64.20
81524;DHT22;70954;49.500;10.416;2023-09-07T06:45:03;16.40;64.20
81524;DHT22;70954;49.500;10.416;2023-09-07T06:47:29;16.40;64.30
81524;DHT22;70954;49.500;10.416;2023-09-07T06:49:55;16.50;64.40
81524;DHT22;70954;49.500;10.416;2023-09-07T06:52:20;16.60;64.50
81524;DHT22;70954;49.500;10.416;2023-09-07T06:54:46;16.70;64.50
81524;DHT22;70954;49.500;10.416;2023-09-07T06:57:11;16.80;64.60
81524;DHT22;70954;49.500;10.416;2023-09-07T06:59:36;16.90;64.60
81524;DHT22;70954;49.500;10.416;2023-09-07T07:02:02;17.00;64.60
81524;DHT22;70954;49.500;10.416;2023-09-07T07:04:28;17.00;64.50
81524;DHT22;70954;49.500;10.416;2023-09-07T07:06:53;17.20;64.50
81524;DHT22;70954;49.500;10.416;2023-09-07T07:09:18;17.30;64.50
81524;DHT22;70954;49.500;10.416;2023-09-07T07:11:44;17.40;64.40
81524;DHT22;70954;49.500;10.416;2023-09-07T07:14:09;17.50;64.40
81524;DHT22;70954;49.500;10.416;2023-09-07T07:16:35;17.60;64.30
81524;DHT22;70954;49.500;10.416;2023-09-07T07:19:00;17.80;64.30
81524;DHT22;70954;49.500;10.416;2023-09-07T07:21:26;17.80;64.20
81524;DHT22;70954;49.500;10.416;2023-09-07T07:23:51;18.00;64.20
81524;DHT22;70954;49.500;10.416;2023-09-07T07:26:16;18.10;64.20
81524;DHT22;70954;49.500;10.416;2023-09-07T07:28:42;18.20;64.10
81524;DHT22;70954;49.500;10.416;2023-09-07T07:31:08;18.30;64.00
81524;DHT22;70954;49.500;10.416;2023-09-07T07:33:34;18.40;63.90
81524;DHT22;70954;49.500;10.416;2023-09-07T07:35:59;18.50;63.90
81524;DHT22;70954;49.500;10.416;2023-09-07T07:38:25;18.70;63.80
81524;DHT22;70954;49.500;10.416;2023-09-07T07:40:50;18.80;63.80
81524;DHT22;70954;49.500;10.416;2023-09-07T07:43:15;18.90;63.70
81524;DHT22;70954;49.500;10.416;2023-09-07T07:45:41;19.00;63.60
81524;DHT22;70954;49.500;10.416;2023-09-07T07:48:06;19.10;63.50
81524;DHT22;70954;49.500;10.416;2023-09-07T07:50:32;19.30;63.40
81524;DHT22;70954;49.500;10.416;2023-09-07T07:52:57;19.40;63.30
81524;DHT22;70954;49.500;10.416;2023-09-07T07:55:23;19.50;63.20
81524;DHT22;70954;49.500;10.416;2023-09-07T07:57:48;19.70;62.90
81524;DHT22;70954;49.500;10.416;2023-09-07T08:00:14;19.80;62.80
81524;DHT22;70954;49.500;10.416;2023-09-07T08:02:39;20.00;62.60
81524;DHT22;70954;49.500;10.416;2023-09-07T08:05:05;20.10;62.50
81524;DHT22;70954;49.500;10.416;2023-09-07T08:07:31;20.30;62.30
81524;DHT22;70954;49.500;10.416;2023-09-07T08:09:56;20.30;62.10
81524;DHT22;70954;49.500;10.416;2023-09-07T08:12:21;20.50;62.10
81524;DHT22;70954;49.500;10.416;2023-09-07T08:14:47;20.60;61.90
81524;DHT22;70954;49.500;10.416;2023-09-07T08:17:12;20.80;61.70
81524;DHT22;70954;49.500;10.416;2023-09-07T08:19:38;20.90;61.40
81524;DHT22;70954;49.500;10.416;2023-09-07T08:22:04;21.10;61.00
81524;DHT22;70954;49.500;10.416;2023-09-07T08:24:30;21.10;60.80
81524;DHT22;70954;49.500;10.416;2023-09-07T08:26:56;21.30;60.50
81524;DHT22;70954;49.500;10.416;2023-09-07T08:29:21;21.50;60.20
81524;DHT22;70954;49.500;10.416;2023-09-07T08:31:46;21.60;60.10
81524;DHT22;70954;49.500;10.416;2023-09-07T08:34:12;21.70;59.80
81524;DHT22;70954;49.500;10.416;2023-09-07T08:36:37;21.90;59.60
81524;DHT22;70954;49.500;10.416;2023-09-07T08:39:06;22.00;59.30
81524;DHT22;70954;49.500;10.416;2023-09-07T08:41:32;22.10;58.90
81524;DHT22;70954;49.500;10.416;2023-09-07T08:44:01;22.30;58.80
81524;DHT22;70954;49.500;10.416;2023-09-07T08:46:28;22.50;58.50
81524;DHT22;70954;49.500;10.416;2023-09-07T08:48:54;22.60;58.20
81524;DHT22;70954;49.500;10.416;2023-09-07T08:51:20;22.70;57.90
81524;DHT22;70954;49.500;10.416;2023-09-07T08:53:46;22.80;57.70
81524;DHT22;70954;49.500;10.416;2023-09-07T08:56:12;22.90;57.40
81524;DHT22;70954;49.500;10.416;2023-09-07T08:58:38;23.00;57.10
81524;DHT22;70954;49.500;10.416;2023-09-07T09:01:04;23.20;56.70
81524;DHT22;70954;49.500;10.416;2023-09-07T09:03:29;23.30;56.50
81524;DHT22;70954;49.500;10.416;2023-09-07T09:05:55;23.40;56.20
81524;DHT22;70954;49.500;10.416;2023-09-07T09:08:21;23.50;56.00
81524;DHT22;70954;49.500;10.416;2023-09-07T09:10:47;23.60;55.80
81524;DHT22;70954;49.500;10.416;2023-09-07T09:13:12;23.80;55.40
81524;DHT22;70954;49.500;10.416;2023-09-07T09:15:38;23.90;55.10
81524;DHT22;70954;49.500;10.416;2023-09-07T09:18:11;24.00;54.90
81524;DHT22;70954;49.500;10.416;2023-09-07T09:20:37;24.00;54.20
81524;DHT22;70954;49.500;10.416;2023-09-07T09:23:03;24.20;54.40
81524;DHT22;70954;49.500;10.416;2023-09-07T09:25:31;24.20;54.20
81524;DHT22;70954;49.500;10.416;2023-09-07T09:27:56;24.40;53.80
81524;DHT22;70954;49.500;10.416;2023-09-07T09:30:22;24.40;53.50
81524;DHT22;70954;49.500;10.416;2023-09-07T09:32:48;24.50;53.30
81524;DHT22;70954;49.500;10.416;2023-09-07T09:35:16;24.60;53.20
81524;DHT22;70954;49.500;10.416;2023-09-07T09:37:46;24.60;52.80
81524;DHT22;70954;49.500;10.416;2023-09-07T09:40:13;24.70;52.40
81524;DHT22;70954;49.500;10.416;2023-09-07T09:42:41;24.80;52.40
81524;DHT22;70954;49.500;10.416;2023-09-07T09:45:07;24.90;52.10
81524;DHT22;70954;49.500;10.416;2023-09-07T09:47:38;25.00;51.90
81524;DHT22;70954;49.500;10.416;2023-09-07T09:50:06;25.00;51.60
81524;DHT22;70954;49.500;10.416;2023-09-07T09:52:33;25.00;51.40
81524;DHT22;70954;49.500;10.416;2023-09-07T09:55:00;25.10;51.20
81524;DHT22;70954;49.500;10.416;2023-09-07T09:57:25;25.20;50.90
81524;DHT22;70954;49.500;10.416;2023-09-07T09:59:51;25.30;50.80
81524;DHT22;70954;49.500;10.416;2023-09-07T10:02:16;25.30;50.60
81524;DHT22;70954;49.500;10.416;2023-09-07T10:04:42;25.40;50.50
81524;DHT22;70954;49.500;10.416;2023-09-07T10:07:08;25.50;50.30
81524;DHT22;70954;49.500;10.416;2023-09-07T10:09:34;25.50;50.20
81524;DHT22;70954;49.500;10.416;2023-09-07T10:12:01;25.60;49.90
81524;DHT22;70954;49.500;10.416;2023-09-07T10:14:40;25.60;49.70
81524;DHT22;70954;49.500;10.416;2023-09-07T10:17:07;25.70;48.70
81524;DHT22;70954;49.500;10.416;2023-09-07T10:19:32;25.80;49.30
81524;DHT22;70954;49.500;10.416;2023-09-07T10:21:58;25.80;49.10
81524;DHT22;70954;49.500;10.416;2023-09-07T10:24:32;25.80;48.90
81524;DHT22;70954;49.500;10.416;2023-09-07T10:27:03;25.90;48.80
81524;DHT22;70954;49.500;10.416;2023-09-07T10:29:29;26.00;48.50
81524;DHT22;70954;49.500;10.416;2023-09-07T10:32:05;26.00;48.70
81524;DHT22;70954;49.500;10.416;2023-09-07T10:34:35;26.00;48.50
81524;DHT22;70954;49.500;10.416;2023-09-07T10:37:00;26.10;48.20
81524;DHT22;70954;49.500;10.416;2023-09-07T10:39:30;26.10;48.20
81524;DHT22;70954;49.500;10.416;2023-09-07T10:41:56;26.10;47.90
81524;DHT22;70954;49.500;10.416;2023-09-07T10:44:28;26.20;47.90
81524;DHT22;70954;49.500;10.416;2023-09-07T10:46:55;26.20;47.50
81524;DHT22;70954;49.500;10.416;2023-09-07T10:49:21;26.30;47.70
81524;DHT22;70954;49.500;10.416;2023-09-07T10:51:47;26.30;47.60
81524;DHT22;70954;49.500;10.416;2023-09-07T10:54:17;26.40;47.50
81524;DHT22;70954;49.500;10.416;2023-09-07T10:56:44;26.40;47.20
81524;DHT22;70954;49.500;10.416;2023-09-07T10:59:10;26.40;47.20
81524;DHT22;70954;49.500;10.416;2023-09-07T11:01:35;26.50;47.00
81524;DHT22;70954;49.500;10.416;2023-09-07T11:04:01;26.50;46.80
81524;DHT22;70954;49.500;10.416;2023-09-07T11:06:26;26.50;46.70
81524;DHT22;70954;49.500;10.416;2023-09-07T11:08:52;26.60;46.60
81524;DHT22;70954;49.500;10.416;2023-09-07T11:11:17;26.60;46.50
81524;DHT22;70954;49.500;10.416;2023-09-07T11:13:43;26.60;46.50
81524;DHT22;70954;49.500;10.416;2023-09-07T11:16:09;26.70;46.50
81524;DHT22;70954;49.500;10.416;2023-09-07T11:18:35;26.70;46.50
81524;DHT22;70954;49.500;10.416;2023-09-07T11:21:01;26.70;46.50
81524;DHT22;70954;49.500;10.416;2023-09-07T11:23:27;26.80;46.40
81524;DHT22;70954;49.500;10.416;2023-09-07T11:25:52;26.80;46.20
81524;DHT22;70954;49.500;10.416;2023-09-07T11:28:18;26.90;46.00
81524;DHT22;70954;49.500;10.416;2023-09-07T11:30:54;26.90;45.80
81524;DHT22;70954;49.500;10.416;2023-09-07T11:33:21;26.90;45.30
81524;DHT22;70954;49.500;10.416;2023-09-07T11:35:47;27.00;45.60
81524;DHT22;70954;49.500;10.416;2023-09-07T11:38:14;27.00;45.50
81524;DHT22;70954;49.500;10.416;2023-09-07T11:40:40;27.00;45.30
81524;DHT22;70954;49.500;10.416;2023-09-07T11:43:06;27.00;45.30
81524;DHT22;70954;49.500;10.416;2023-09-07T11:45:31;27.00;45.20
81524;DHT22;70954;49.500;10.416;2023-09-07T11:47:56;27.10;45.10
81524;DHT22;70954;49.500;10.416;2023-09-07T11:50:24;27.10;45.20
81524;DHT22;70954;49.500;10.416;2023-09-07T11:52:49;27.10;45.10
81524;DHT22;70954;49.500;10.416;2023-09-07T11:55:15;27.10;45.10
81524;DHT22;70954;49.500;10.416;2023-09-07T11:57:40;27.20;45.00
81524;DHT22;70954;49.500;10.416;2023-09-07T12:00:06;27.20;45.00
81524;DHT22;70954;49.500;10.416;2023-09-07T12:02:32;27.20;44.90
81524;DHT22;70954;49.500;10.416;2023-09-07T12:04:57;27.20;44.70
81524;DHT22;70954;49.500;10.416;2023-09-07T12:07:23;27.30;44.60
81524;DHT22;70954;49.500;10.416;2023-09-07T12:09:48;27.30;44.40
81524;DHT22;70954;49.500;10.416;2023-09-07T12:12:14;27.40;44.30
81524;DHT22;70954;49.500;10.416;2023-09-07T12:14:39;27.40;44.40
81524;DHT22;70954;49.500;10.416;2023-09-07T12:17:05;27.40;44.20
81524;DHT22;70954;49.500;10.416;2023-09-07T12:19:30;27.40;44.20
81524;DHT22;70954;49.500;10.416;2023-09-07T12:21:56;27.50;44.00
81524;DHT22;70954;49.500;10.416;2023-09-07T12:24:21;27.50;44.00
81524;DHT22;70954;49.500;10.416;2023-09-07T12:26:46;27.50;43.90
81524;DHT22;70954;49.500;10.416;2023-09-07T12:29:12;27.50;43.80
81524;DHT22;70954;49.500;10.416;2023-09-07T12:31:37;27.50;43.70
81524;DHT22;70954;49.500;10.416;2023-09-07T12:34:03;27.60;43.60
81524;DHT22;70954;49.500;10.416;2023-09-07T12:36:28;27.60;43.50
81524;DHT22;70954;49.500;10.416;2023-09-07T12:38:54;27.70;43.40
81524;DHT22;70954;49.500;10.416;2023-09-07T12:41:19;27.70;43.20
81524;DHT22;70954;49.500;10.416;2023-09-07T12:43:45;27.70;43.20
81524;DHT22;70954;49.500;10.416;2023-09-07T12:46:10;27.70;43.10
81524;DHT22;70954;49.500;10.416;2023-09-07T12:48:35;27.80;42.90
81524;DHT22;70954;49.500;10.416;2023-09-07T12:51:01;27.80;42.80
81524;DHT22;70954;49.500;10.416;2023-09-07T12:53:26;27.80;42.70
81524;DHT22;70954;49.500;10.416;2023-09-07T12:55:55;27.90;42.60
81524;DHT22;70954;49.500;10.416;2023-09-07T12:58:21;27.90;42.40
81524;DHT22;70954;49.500;10.416;2023-09-07T13:00:46;27.90;42.40
81524;DHT22;70954;49.500;10.416;2023-09-07T13:03:12;27.90;42.10
81524;DHT22;70954;49.500;10.416;2023-09-07T13:05:37;28.00;42.00
81524;DHT22;70954;49.500;10.416;2023-09-07T13:08:03;28.00;41.80
81524;DHT22;70954;49.500;10.416;2023-09-07T13:10:29;28.00;41.60
81524;DHT22;70954;49.500;10.416;2023-09-07T13:12:54;28.00;41.50
81524;DHT22;70954;49.500;10.416;2023-09-07T13:15:20;28.00;41.50
81524;DHT22;70954;49.500;10.416;2023-09-07T13:17:45;28.10;41.40
81524;DHT22;70954;49.500;10.416;2023-09-07T13:20:11;28.10;41.20
81524;DHT22;70954;49.500;10.416;2023-09-07T13:22:36;28.10;41.10
81524;DHT22;70954;49.500;10.416;2023-09-07T13:25:02;28.10;41.00
81524;DHT22;70954;49.500;10.416;2023-09-07T13:27:29;28.10;40.90
81524;DHT22;70954;49.500;10.416;2023-09-07T13:29:54;28.10;40.80
81524;DHT22;70954;49.500;10.416;2023-09-07T13:32:19;28.10;40.80
81524;DHT22;70954;49.500;10.416;2023-09-07T13:34:45;28.10;40.80
81524;DHT22;70954;49.500;10.416;2023-09-07T13:37:10;28.10;40.70
81524;DHT22;70954;49.500;10.416;2023-09-07T13:39:36;28.20;40.60
81524;DHT22;70954;49.500;10.416;2023-09-07T13:42:01;28.30;40.70
81524;DHT22;70954;49.500;10.416;2023-09-07T13:44:27;28.30;40.60
81524;DHT22;70954;49.500;10.416;2023-09-07T13:46:52;28.30;40.60
81524;DHT22;70954;49.500;10.416;2023-09-07T13:49:18;28.30;40.50
81524;DHT22;70954;49.500;10.416;2023-09-07T13:51:43;28.40;40.50
81524;DHT22;70954;49.500;10.416;2023-09-07T13:54:09;28.40;40.40
81524;DHT22;70954;49.500;10.416;2023-09-07T13:56:34;28.40;40.30
81524;DHT22;70954;49.500;10.416;2023-09-07T13:59:00;28.40;40.30
81524;DHT22;70954;49.500;10.416;2023-09-07T14:01:26;28.50;40.30
81524;DHT22;70954;49.500;10.416;2023-09-07T14:03:52;28.50;40.20
81524;DHT22;70954;49.500;10.416;2023-09-07T14:06:18;28.50;40.30
81524;DHT22;70954;49.500;10.416;2023-09-07T14:08:43;28.50;40.30
81524;DHT22;70954;49.500;10.416;2023-09-07T14:11:09;28.50;40.20
81524;DHT22;70954;49.500;10.416;2023-09-07T14:13:35;28.50;40.30
81524;DHT22;70954;49.500;10.416;2023-09-07T14:16:00;28.60;40.30
81524;DHT22;70954;49.500;10.416;2023-09-07T14:18:26;28.60;40.20
81524;DHT22;70954;49.500;10.416;2023-09-07T14:20:51;28.60;40.00
81524;DHT22;70954;49.500;10.416;2023-09-07T14:23:17;28.60;40.00
81524;DHT22;70954;49.500;10.416;2023-09-07T14:25:42;28.70;40.00
81524;DHT22;70954;49.500;10.416;2023-09-07T14:28:08;28.70;39.90
81524;DHT22;70954;49.500;10.416;2023-09-07T14:30:33;28.70;39.80
81524;DHT22;70954;49.500;10.416;2023-09-07T14:32:59;28.70;39.60
81524;DHT22;70954;49.500;10.416;2023-09-07T14:35:24;28.70;39.50
81524;DHT22;70954;49.500;10.416;2023-09-07T14:37:50;28.80;39.40
81524;DHT22;70954;49.500;10.416;2023-09-07T14:40:15;28.80;39.30
81524;DHT22;70954;49.500;10.416;2023-09-07T14:42:41;28.90;39.30
81524;DHT22;70954;49.500;10.416;2023-09-07T14:45:06;28.90;39.20
81524;DHT22;70954;49.500;10.416;2023-09-07T14:47:32;28.90;39.20
81524;DHT22;70954;49.500;10.416;2023-09-07T14:49:58;28.90;39.20
81524;DHT22;70954;49.500;10.416;2023-09-07T14:52:23;28.90;39.30
81524;DHT22;70954;49.500;10.416;2023-09-07T14:54:49;28.90;39.30
81524;DHT22;70954;49.500;10.416;2023-09-07T14:57:14;28.90;39.40
81524;DHT22;70954;49.500;10.416;2023-09-07T14:59:39;28.90;39.40
81524;DHT22;70954;49.500;10.416;2023-09-07T15:02:06;29.00;39.40
81524;DHT22;70954;49.500;10.416;2023-09-07T15:04:32;29.00;39.40
81524;DHT22;70954;49.500;10.416;2023-09-07T15:06:58;29.00;39.40
81524;DHT22;70954;49.500;10.416;2023-09-07T15:09:23;29.10;39.50
81524;DHT22;70954;49.500;10.416;2023-09-07T15:11:49;29.10;39.40